»·PEaware :: N913BH KSMX-KBFL

N913BH :: KSMX-KBFL

FLIGHT INFORMATION

Flight Status: Arrived
Operator: Privately registered:
United States
More flights under this callsign
Pilot: Cody H. (16298)
Aircraft: PIPER PA-28 CHEROKEE ARCHER
(PA28)
More flights by this aircraft type
Origin: KSMX Santa Maria Pub/Capt Hancock
United States
Destination: KBFL Meadows
United States
More flights between these airports :: More routes between these airports
Route: +
File this flight plan on PilotEdge
Remarks: CAT-05
Altitude:
(Current/Filed)
6,500ft
Speed:
(Current/Filed)
115kts
Departed: 07-Oct-17 01:58 PM
Arrived: 07-Oct-17 02:43 PM
Distance/Time
Traveled:
76nm/0:44
Distance/Time
To Go:
Arrived

Flight Plot

Page will automatically refresh every two minutes.


Map Options




Map Legend


Flown Route
Filed Route
Departure Airport
Arrival Airport
Navaid (VOR, NDB)
Fix

Horizontal Profiles

Position Reports

Time Latitude Longitude Heading Altitude Ground
Speed
07-Oct-17 13:40 34.896799 -120.445906 273 266ft 0kts
07-Oct-17 13:41 34.896799 -120.445906 273 266ft 0kts
07-Oct-17 13:42 34.896799 -120.445906 273 266ft 0kts
07-Oct-17 13:43 34.896799 -120.445906 273 266ft 0kts
07-Oct-17 13:44 34.896799 -120.445906 273 266ft 0kts
07-Oct-17 13:45 34.896799 -120.445906 273 266ft 0kts
07-Oct-17 13:46 34.896799 -120.445906 273 266ft 0kts
07-Oct-17 13:47 34.896799 -120.445906 273 266ft 0kts
07-Oct-17 13:48 34.896799 -120.445906 273 266ft 0kts
07-Oct-17 13:49 34.896799 -120.445906 273 266ft 0kts
07-Oct-17 13:50 34.896799 -120.445906 273 266ft 0kts
07-Oct-17 13:51 34.896799 -120.445906 273 266ft 0kts
07-Oct-17 13:52 34.896799 -120.445906 273 266ft 0kts
07-Oct-17 13:53 34.896799 -120.445910 273 266ft 0kts
07-Oct-17 13:54 34.896799 -120.445910 273 266ft 0kts
07-Oct-17 13:55 34.896799 -120.445913 273 266ft 0kts
07-Oct-17 13:57 34.896906 -120.446889 261 266ft 6kts
07-Oct-17 13:57 34.894510 -120.445333 135 266ft 22kts
07-Oct-17 13:58 34.893671 -120.444764 274 266ft 0kts
07-Oct-17 13:59 34.893671 -120.444763 274 266ft 0kts
07-Oct-17 14:01 34.893305 -120.444952 179 266ft 0kts
07-Oct-17 14:01 34.892819 -120.445172 228 266ft 10kts
07-Oct-17 14:02 34.902892 -120.457003 316 832ft 65kts
07-Oct-17 14:03 34.913073 -120.448260 92 1668ft 82kts
07-Oct-17 14:04 34.909324 -120.423806 108 2569ft 74kts
07-Oct-17 14:05 34.912002 -120.393602 63 3015ft 101kts
07-Oct-17 14:06 34.923003 -120.364253 66 3545ft 106kts
07-Oct-17 14:07 34.933009 -120.332241 59 4141ft 98kts
07-Oct-17 14:08 34.945078 -120.300960 62 4680ft 99kts
07-Oct-17 14:09 34.956899 -120.272693 57 5455ft 90kts
07-Oct-17 14:10 34.967541 -120.245777 60 6156ft 93kts
07-Oct-17 14:11 34.979117 -120.216135 59 6615ft 109kts
07-Oct-17 14:12 34.995022 -120.180994 57 6618ft 123kts
07-Oct-17 14:13 35.008197 -120.142035 65 6624ft 123kts
07-Oct-17 14:14 35.020281 -120.103863 75 6573ft 121kts
07-Oct-17 14:15 35.036844 -120.069695 55 6572ft 118kts
07-Oct-17 14:16 35.052448 -120.034884 59 6571ft 118kts
07-Oct-17 14:17 35.067004 -119.999344 60 6570ft 118kts
07-Oct-17 14:18 35.081418 -119.963166 60 6571ft 118kts
07-Oct-17 14:19 35.095841 -119.926800 60 6553ft 119kts
07-Oct-17 14:20 35.108397 -119.894945 61 6554ft 119kts
07-Oct-17 14:21 35.122717 -119.858486 61 6553ft 118kts
07-Oct-17 14:22 35.137063 -119.821977 61 6553ft 119kts
07-Oct-17 14:23 35.151430 -119.785388 61 6551ft 119kts
07-Oct-17 14:24 35.165811 -119.748719 61 6552ft 119kts
07-Oct-17 14:25 35.180116 -119.712182 61 6563ft 118kts
07-Oct-17 14:26 35.194278 -119.676006 61 6574ft 117kts
07-Oct-17 14:27 35.208359 -119.640011 61 6586ft 116kts
07-Oct-17 14:28 35.222274 -119.604405 61 6599ft 115kts
07-Oct-17 14:29 35.236149 -119.568844 61 6610ft 115kts
07-Oct-17 14:30 35.249805 -119.533791 61 6619ft 115kts
07-Oct-17 14:31 35.263552 -119.498452 62 6623ft 115kts
07-Oct-17 14:32 35.277332 -119.462991 62 6623ft 115kts
07-Oct-17 14:33 35.291090 -119.427553 62 6623ft 115kts
07-Oct-17 14:34 35.304475 -119.392071 64 6457ft 115kts
07-Oct-17 14:35 35.317094 -119.355399 64 6101ft 122kts
07-Oct-17 14:36 35.330698 -119.321140 61 5732ft 123kts
07-Oct-17 14:37 35.346340 -119.283795 60 5364ft 124kts
07-Oct-17 14:38 35.362078 -119.246648 61 4969ft 123kts
07-Oct-17 14:39 35.376939 -119.207853 67 4529ft 125kts
07-Oct-17 14:40 35.388799 -119.168029 66 3934ft 123kts
07-Oct-17 14:41 35.403419 -119.129836 61 2671ft 121kts
07-Oct-17 14:42 35.420489 -119.096614 51 1444ft 111kts
07-Oct-17 14:43 35.429083 -119.068382 142 1384ft 94kts
07-Oct-17 14:44 35.407284 -119.051198 151 1494ft 88kts
07-Oct-17 14:45 35.408961 -119.034934 356 1102ft 73kts
07-Oct-17 14:46 35.425263 -119.045668 311 659ft 68kts
07-Oct-17 14:47 35.436587 -119.059516 313 491ft 27kts
07-Oct-17 14:48 35.437747 -119.058663 134 497ft 1kts
07-Oct-17 14:49 35.433560 -119.053673 137 493ft 28kts
07-Oct-17 14:50 35.430802 -119.049178 60 495ft 3kts
07-Oct-17 14:51 35.430007 -119.046986 125 496ft 14kts
07-Oct-17 14:52 35.427508 -119.044745 140 489ft 29kts
07-Oct-17 14:53 35.424651 -119.042346 58 480ft 1kts

Navigation Log

Ident Type
1. KSMX Airport
2. KBFL Airport